Forside
METAR-TAF:

METAR-TAF

Lufthavne :

Nouméa / La Tontouta, Ny Kaledonien

Breddekreds: 22-01S, længdekreds: 166-13E, højde: 16 m

Aktuelle vejr

Denne rapport blev lavet for 22 minutter siden, kl. 02:30 UTC
Vind 15 kt fra sydøst, varierende mellem østsydøst og syd
Temperatur 29°C
Fugtighed 52%
Tryk 1009 hPa
Sigt 10 km eller mere
ingen skyer under 1500m og ingen cumulonimbus

METAR: NWWW 160230Z AUTO 14015KT 120V180 CAVOK 29/18 Q1009 BECMG 15015G25KT

Tid: 13:52 (02:52 UTC)

Vejrudsigter

Denne rapport blev lavet for 3 timer og 52 minutter siden, kl. 23:00 UTC
Foreløbig gælder fra 16 på 00 UTC til 16 på 24 UTC
Vind 15 kt fra sydsydøst med vindstød på up til 25 kt
Sigt 10 km eller mere
Spredte skyer i en højde af 3500 ft
ændring
fra 16 på 08 UTC til 16 på 10 UTC
Vind 2 kt fra varierende retninger
ændring
fra 16 på 21 UTC til 16 på 23 UTC
Vind 10 kt fra østsydøst

TAF: NWWW 152300Z 1600/1624 15015G25KT 9999 SCT035 BECMG 1608/1610 VRB02KT BECMG 1621/1623 12010KT

Vejrobservationer og prognoser fra mere end 4000 lufthavne (METAR og TAF).

De gule og røde prikker repræsenterer de meteorologiske stationer.

Flyt musen over at se navnet på stationen.

Så klik over at se vejr observationer og prognoser.

At skifte det kort: Klik på de grønne knapper med et sort kors for at zoome ind; på den grønne knap med en bindestreg for at zoome ud; eller på de grønne pile for tilstødende kort.


METAR-TAF: